Bothnia — PBLG — position and weather

sailwx.info

Track history (hours):
 
Tides and Currents Weather Stations Pressure Air Temp Water Temp Dewpoint Dewpoint Depression Visibility Wind Speed Wind Dir Waves Ship Positions

Bothnia

Last reported at 2017-Sep-19 08:06 UTC. Time now 2017-Sep-19 13:53 UTC.
Position N 58°15' E 011°50'.

Length 82 m; draft 5.5 m.

Type: Cargo ship. MMSI: 244741000.

Date/timePositionNaut miles runAvg speedWind from/ knotsBaromVisibWave heightAir tempDewpointWater temp
2017-Sep-19 08:06N 58°15' E 011°50'1 9.9
2017-Sep-19 07:59N 58°14' E 011°51'5 9.6
2017-Sep-19 07:27N 58°09' E 011°50'4 9.1
2017-Sep-19 06:58N 58°05' E 011°47'5 9.8
2017-Sep-19 06:27N 57°60' E 011°46'510.2
2017-Sep-19 06:00N 57°56' E 011°40'510.0
2017-Sep-19 05:29N 57°54' E 011°32'5 9.8
2017-Sep-19 04:58N 57°51' E 011°24'5 9.6
2017-Sep-19 04:29N 57°51' E 011°15'5 9.2
2017-Sep-19 03:59N 57°51' E 011°07'4 8.9
2017-Sep-19 03:30N 57°51' E 010°59'4 8.6
2017-Sep-19 03:00N 57°51' E 010°51'5 9.1
2017-Sep-19 02:30N 57°51' E 010°42'167 8.9
2017-Sep-18 07:51N 55°56' E 007°02'3 8.8
2017-Sep-18 07:29N 55°53' E 006°59'4 8.8
2017-Sep-18 06:59N 55°49' E 006°55'4 8.8
2017-Sep-18 06:30N 55°46' E 006°50'4 8.7
2017-Sep-18 06:00N 55°42' E 006°46'293 8.5
2017-Sep-16 19:32N 51°34' E 002°22'1 8.6
2017-Sep-16 19:26N 51°33' E 002°22'4 8.4
2017-Sep-16 19:00N 51°30' E 002°18'4 7.9
2017-Sep-16 18:30N 51°27' E 002°15'4 8.1
2017-Sep-16 18:00N 51°23' E 002°12'4 7.7
2017-Sep-16 17:31N 51°20' E 002°09'4 7.5
2017-Sep-16 17:01N 51°17' E 002°06'4 7.4
2017-Sep-16 16:30N 51°14' E 002°03'4 7.3
2017-Sep-16 16:01N 51°11' E 001°58'4 7.4
2017-Sep-16 15:31N 51°09' E 001°53'4 7.4
2017-Sep-16 15:00N 51°07' E 001°48'4 7.4
2017-Sep-16 14:31N 51°05' E 001°44'4 7.7
2017-Sep-16 14:00N 51°02' E 001°40'4 8.0
2017-Sep-16 13:31N 50°59' E 001°36'4 8.5
2017-Sep-16 13:01N 50°56' E 001°32'61 8.8
2017-Sep-16 06:04N 50°23' E 000°10'110.0
2017-Sep-16 06:00N 50°23' E 000°09'510.1
2017-Sep-16 05:30N 50°21' E 000°02'510.3
2017-Sep-16 05:00N 50°20' W 000°06'52 9.4
2017-Sep-15 23:28N 50°04' W 001°24'3 7.1
2017-Sep-15 23:00N 50°04' W 001°29'3 6.8
2017-Sep-15 22:30N 50°02' W 001°34'3 6.5
2017-Sep-15 22:00N 50°02' W 001°38'3 6.4
2017-Sep-15 21:30N 50°01' W 001°43'3 6.4
2017-Sep-15 20:59N 49°60' W 001°48'39 8.8
2017-Sep-15 16:30N 49°48' W 002°47'510.3
2017-Sep-15 15:59N 49°46' W 002°54'810.3
2017-Sep-15 15:15N 49°43' W 003°04'710.4
2017-Sep-15 14:34N 49°39' W 003°14'110.3
2017-Sep-15 14:28N 49°39' W 003°15'510.1
2017-Sep-15 13:57N 49°36' W 003°22'  
Track history (hours):
 
Tides and Currents Weather Stations Pressure Air Temp Water Temp Dewpoint Dewpoint Depression Visibility Wind Speed Wind Dir Waves Ship Positions

Bothnia

Last reported at 2017-Sep-19 08:06 UTC. Time now 2017-Sep-19 13:53 UTC.
Position N 58°15' E 011°50'.

Length 82 m; draft 5.5 m.

Type: Cargo ship. MMSI: 244741000.

Date/timePositionNaut miles runAvg speedWind from/ knotsBaromVisibWave heightAir tempDewpointWater temp
2017-Sep-19 08:06N 58°15' E 011°50'1 9.9
2017-Sep-19 07:59N 58°14' E 011°51'5 9.6
2017-Sep-19 07:27N 58°09' E 011°50'4 9.1
2017-Sep-19 06:58N 58°05' E 011°47'5 9.8
2017-Sep-19 06:27N 57°60' E 011°46'510.2
2017-Sep-19 06:00N 57°56' E 011°40'510.0
2017-Sep-19 05:29N 57°54' E 011°32'5 9.8
2017-Sep-19 04:58N 57°51' E 011°24'5 9.6
2017-Sep-19 04:29N 57°51' E 011°15'5 9.2
2017-Sep-19 03:59N 57°51' E 011°07'4 8.9
2017-Sep-19 03:30N 57°51' E 010°59'4 8.6
2017-Sep-19 03:00N 57°51' E 010°51'5 9.1
2017-Sep-19 02:30N 57°51' E 010°42'167 8.9
2017-Sep-18 07:51N 55°56' E 007°02'3 8.8
2017-Sep-18 07:29N 55°53' E 006°59'4 8.8
2017-Sep-18 06:59N 55°49' E 006°55'4 8.8
2017-Sep-18 06:30N 55°46' E 006°50'4 8.7
2017-Sep-18 06:00N 55°42' E 006°46'293 8.5
2017-Sep-16 19:32N 51°34' E 002°22'1 8.6
2017-Sep-16 19:26N 51°33' E 002°22'4 8.4
2017-Sep-16 19:00N 51°30' E 002°18'4 7.9
2017-Sep-16 18:30N 51°27' E 002°15'4 8.1
2017-Sep-16 18:00N 51°23' E 002°12'4 7.7
2017-Sep-16 17:31N 51°20' E 002°09'4 7.5
2017-Sep-16 17:01N 51°17' E 002°06'4 7.4
2017-Sep-16 16:30N 51°14' E 002°03'4 7.3
2017-Sep-16 16:01N 51°11' E 001°58'4 7.4
2017-Sep-16 15:31N 51°09' E 001°53'4 7.4
2017-Sep-16 15:00N 51°07' E 001°48'4 7.4
2017-Sep-16 14:31N 51°05' E 001°44'4 7.7
2017-Sep-16 14:00N 51°02' E 001°40'4 8.0
2017-Sep-16 13:31N 50°59' E 001°36'4 8.5
2017-Sep-16 13:01N 50°56' E 001°32'61 8.8
2017-Sep-16 06:04N 50°23' E 000°10'110.0
2017-Sep-16 06:00N 50°23' E 000°09'510.1
2017-Sep-16 05:30N 50°21' E 000°02'510.3
2017-Sep-16 05:00N 50°20' W 000°06'52 9.4
2017-Sep-15 23:28N 50°04' W 001°24'3 7.1
2017-Sep-15 23:00N 50°04' W 001°29'3 6.8
2017-Sep-15 22:30N 50°02' W 001°34'3 6.5
2017-Sep-15 22:00N 50°02' W 001°38'3 6.4
2017-Sep-15 21:30N 50°01' W 001°43'3 6.4
2017-Sep-15 20:59N 49°60' W 001°48'39 8.8
2017-Sep-15 16:30N 49°48' W 002°47'510.3
2017-Sep-15 15:59N 49°46' W 002°54'810.3
2017-Sep-15 15:15N 49°43' W 003°04'710.4
2017-Sep-15 14:34N 49°39' W 003°14'110.3
2017-Sep-15 14:28N 49°39' W 003°15'510.1
2017-Sep-15 13:57N 49°36' W 003°22'  

Dump ship's entire track history